sensor_id;sensor_type;location;lat;lon;timestamp;temperature;humidity
71206;SHT31;58935;54.498;18.544;2024-02-28T00:00:09;3.55;93.09
71206;SHT31;58935;54.498;18.544;2024-02-28T00:02:35;3.56;93.08
71206;SHT31;58935;54.498;18.544;2024-02-28T00:05:01;3.54;93.06
71206;SHT31;58935;54.498;18.544;2024-02-28T00:07:29;3.55;93.10
71206;SHT31;58935;54.498;18.544;2024-02-28T00:09:55;3.57;93.10
71206;SHT31;58935;54.498;18.544;2024-02-28T00:12:23;3.56;93.10
71206;SHT31;58935;54.498;18.544;2024-02-28T00:14:50;3.57;93.10
71206;SHT31;58935;54.498;18.544;2024-02-28T00:17:16;3.56;93.10
71206;SHT31;58935;54.498;18.544;2024-02-28T00:19:41;3.54;93.10
71206;SHT31;58935;54.498;18.544;2024-02-28T00:22:07;3.55;93.11
71206;SHT31;58935;54.498;18.544;2024-02-28T00:24:34;3.54;93.09
71206;SHT31;58935;54.498;18.544;2024-02-28T00:27:02;3.54;93.10
71206;SHT31;58935;54.498;18.544;2024-02-28T00:29:27;3.53;93.10
71206;SHT31;58935;54.498;18.544;2024-02-28T00:31:55;3.54;93.17
71206;SHT31;58935;54.498;18.544;2024-02-28T00:34:20;3.54;93.15
71206;SHT31;58935;54.498;18.544;2024-02-28T00:36:45;3.56;93.20
71206;SHT31;58935;54.498;18.544;2024-02-28T00:39:11;3.56;93.20
71206;SHT31;58935;54.498;18.544;2024-02-28T00:41:37;3.59;93.24
71206;SHT31;58935;54.498;18.544;2024-02-28T00:44:02;3.59;93.16
71206;SHT31;58935;54.498;18.544;2024-02-28T00:46:28;3.57;93.10
71206;SHT31;58935;54.498;18.544;2024-02-28T00:48:53;3.58;93.16
71206;SHT31;58935;54.498;18.544;2024-02-28T00:51:19;3.59;93.15
71206;SHT31;58935;54.498;18.544;2024-02-28T00:53:44;3.59;93.11
71206;SHT31;58935;54.498;18.544;2024-02-28T00:56:10;3.58;93.10
71206;SHT31;58935;54.498;18.544;2024-02-28T00:58:35;3.59;93.08
71206;SHT31;58935;54.498;18.544;2024-02-28T01:01:03;3.60;93.10
71206;SHT31;58935;54.498;18.544;2024-02-28T01:03:28;3.61;93.10
71206;SHT31;58935;54.498;18.544;2024-02-28T01:05:53;3.62;93.11
71206;SHT31;58935;54.498;18.544;2024-02-28T01:08:19;3.63;93.10
71206;SHT31;58935;54.498;18.544;2024-02-28T01:10:46;3.63;93.04
71206;SHT31;58935;54.498;18.544;2024-02-28T01:13:12;3.63;93.03
71206;SHT31;58935;54.498;18.544;2024-02-28T01:15:40;3.63;93.06
71206;SHT31;58935;54.498;18.544;2024-02-28T01:18:07;3.65;93.09
71206;SHT31;58935;54.498;18.544;2024-02-28T01:20:32;3.66;93.07
71206;SHT31;58935;54.498;18.544;2024-02-28T01:22:58;3.68;93.04
71206;SHT31;58935;54.498;18.544;2024-02-28T01:25:23;3.67;93.00
71206;SHT31;58935;54.498;18.544;2024-02-28T01:27:48;3.67;92.99
71206;SHT31;58935;54.498;18.544;2024-02-28T01:30:14;3.68;92.98
71206;SHT31;58935;54.498;18.544;2024-02-28T01:32:39;3.67;92.90
71206;SHT31;58935;54.498;18.544;2024-02-28T01:35:04;3.68;92.90
71206;SHT31;58935;54.498;18.544;2024-02-28T01:37:33;3.68;92.90
71206;SHT31;58935;54.498;18.544;2024-02-28T01:40:00;3.66;92.86
71206;SHT31;58935;54.498;18.544;2024-02-28T01:42:25;3.65;92.81
71206;SHT31;58935;54.498;18.544;2024-02-28T01:44:51;3.67;92.90
71206;SHT31;58935;54.498;18.544;2024-02-28T01:47:16;3.69;92.90
71206;SHT31;58935;54.498;18.544;2024-02-28T01:49:45;3.68;92.87
71206;SHT31;58935;54.498;18.544;2024-02-28T01:52:12;3.68;92.81
71206;SHT31;58935;54.498;18.544;2024-02-28T01:54:39;3.66;92.77
71206;SHT31;58935;54.498;18.544;2024-02-28T01:57:06;3.67;92.79
71206;SHT31;58935;54.498;18.544;2024-02-28T01:59:32;3.68;92.88
71206;SHT31;58935;54.498;18.544;2024-02-28T02:01:59;3.72;92.94
71206;SHT31;58935;54.498;18.544;2024-02-28T02:04:25;3.72;92.86
71206;SHT31;58935;54.498;18.544;2024-02-28T02:06:50;3.72;92.80
71206;SHT31;58935;54.498;18.544;2024-02-28T02:09:19;3.69;92.70
71206;SHT31;58935;54.498;18.544;2024-02-28T02:11:45;3.69;92.71
71206;SHT31;58935;54.498;18.544;2024-02-28T02:14:12;3.69;92.71
71206;SHT31;58935;54.498;18.544;2024-02-28T02:16:38;3.68;92.69
71206;SHT31;58935;54.498;18.544;2024-02-28T02:19:03;3.69;92.69
71206;SHT31;58935;54.498;18.544;2024-02-28T02:21:30;3.67;92.61
71206;SHT31;58935;54.498;18.544;2024-02-28T02:23:59;3.65;92.60
71206;SHT31;58935;54.498;18.544;2024-02-28T02:26:27;3.64;92.63
71206;SHT31;58935;54.498;18.544;2024-02-28T02:28:55;3.66;92.71
71206;SHT31;58935;54.498;18.544;2024-02-28T02:31:22;3.67;92.71
71206;SHT31;58935;54.498;18.544;2024-02-28T02:33:50;3.69;92.73
71206;SHT31;58935;54.498;18.544;2024-02-28T02:36:20;3.70;92.71
71206;SHT31;58935;54.498;18.544;2024-02-28T02:38:46;3.70;92.69
71206;SHT31;58935;54.498;18.544;2024-02-28T02:41:13;3.70;92.69
71206;SHT31;58935;54.498;18.544;2024-02-28T02:43:41;3.71;92.65
71206;SHT31;58935;54.498;18.544;2024-02-28T02:46:06;3.72;92.69
71206;SHT31;58935;54.498;18.544;2024-02-28T02:48:34;3.76;92.78
71206;SHT31;58935;54.498;18.544;2024-02-28T02:50:59;3.76;92.64
71206;SHT31;58935;54.498;18.544;2024-02-28T02:53:27;3.74;92.60
71206;SHT31;58935;54.498;18.544;2024-02-28T02:55:52;3.76;92.62
71206;SHT31;58935;54.498;18.544;2024-02-28T02:58:19;3.76;92.60
71206;SHT31;58935;54.498;18.544;2024-02-28T03:00:44;3.76;92.52
71206;SHT31;58935;54.498;18.544;2024-02-28T03:03:09;3.76;92.58
71206;SHT31;58935;54.498;18.544;2024-02-28T03:05:35;3.77;92.60
71206;SHT31;58935;54.498;18.544;2024-02-28T03:08:00;3.78;92.59
71206;SHT31;58935;54.498;18.544;2024-02-28T03:10:25;3.78;92.54
71206;SHT31;58935;54.498;18.544;2024-02-28T03:12:51;3.78;92.52
71206;SHT31;58935;54.498;18.544;2024-02-28T03:15:16;3.81;92.60
71206;SHT31;58935;54.498;18.544;2024-02-28T03:17:42;3.83;92.60
71206;SHT31;58935;54.498;18.544;2024-02-28T03:20:07;3.83;92.53
71206;SHT31;58935;54.498;18.544;2024-02-28T03:22:33;3.84;92.51
71206;SHT31;58935;54.498;18.544;2024-02-28T03:24:58;3.86;92.50
71206;SHT31;58935;54.498;18.544;2024-02-28T03:27:26;3.88;92.51
71206;SHT31;58935;54.498;18.544;2024-02-28T03:29:51;3.90;92.49
71206;SHT31;58935;54.498;18.544;2024-02-28T03:32:17;3.90;92.44
71206;SHT31;58935;54.498;18.544;2024-02-28T03:34:45;3.90;92.44
71206;SHT31;58935;54.498;18.544;2024-02-28T03:37:10;3.88;92.32
71206;SHT31;58935;54.498;18.544;2024-02-28T03:39:35;3.90;92.40
71206;SHT31;58935;54.498;18.544;2024-02-28T03:42:00;3.92;92.41
71206;SHT31;58935;54.498;18.544;2024-02-28T03:44:26;3.95;92.40
71206;SHT31;58935;54.498;18.544;2024-02-28T03:46:51;3.94;92.33
71206;SHT31;58935;54.498;18.544;2024-02-28T03:49:16;3.94;92.30
71206;SHT31;58935;54.498;18.544;2024-02-28T03:51:44;3.93;92.18
71206;SHT31;58935;54.498;18.544;2024-02-28T03:54:09;3.92;92.15
71206;SHT31;58935;54.498;18.544;2024-02-28T03:56:39;3.89;92.11
71206;SHT31;58935;54.498;18.544;2024-02-28T03:59:05;3.87;92.11
71206;SHT31;58935;54.498;18.544;2024-02-28T04:01:30;3.87;92.13
71206;SHT31;58935;54.498;18.544;2024-02-28T04:03:55;3.85;92.12
71206;SHT31;58935;54.498;18.544;2024-02-28T04:06:21;3.83;92.15
71206;SHT31;58935;54.498;18.544;2024-02-28T04:08:49;3.83;92.20
71206;SHT31;58935;54.498;18.544;2024-02-28T04:11:17;3.82;92.20
71206;SHT31;58935;54.498;18.544;2024-02-28T04:13:42;3.81;92.20
71206;SHT31;58935;54.498;18.544;2024-02-28T04:16:10;3.83;92.19
71206;SHT31;58935;54.498;18.544;2024-02-28T04:18:37;3.84;92.26
71206;SHT31;58935;54.498;18.544;2024-02-28T04:21:03;3.88;92.38
71206;SHT31;58935;54.498;18.544;2024-02-28T04:23:28;3.92;92.42
71206;SHT31;58935;54.498;18.544;2024-02-28T04:25:53;3.94;92.34
71206;SHT31;58935;54.498;18.544;2024-02-28T04:28:19;3.95;92.22
71206;SHT31;58935;54.498;18.544;2024-02-28T04:30:45;3.96;92.26
71206;SHT31;58935;54.498;18.544;2024-02-28T04:33:10;3.96;92.20
71206;SHT31;58935;54.498;18.544;2024-02-28T04:35:35;3.97;92.20
71206;SHT31;58935;54.498;18.544;2024-02-28T04:38:01;3.98;92.18
71206;SHT31;58935;54.498;18.544;2024-02-28T04:40:26;3.96;92.05
71206;SHT31;58935;54.498;18.544;2024-02-28T04:42:51;3.92;91.99
71206;SHT31;58935;54.498;18.544;2024-02-28T04:45:19;3.92;92.03
71206;SHT31;58935;54.498;18.544;2024-02-28T04:47:44;3.93;92.11
71206;SHT31;58935;54.498;18.544;2024-02-28T04:50:10;3.91;92.03
71206;SHT31;58935;54.498;18.544;2024-02-28T04:52:36;3.91;92.10
71206;SHT31;58935;54.498;18.544;2024-02-28T04:55:01;3.93;92.13
71206;SHT31;58935;54.498;18.544;2024-02-28T04:57:27;3.95;92.16
71206;SHT31;58935;54.498;18.544;2024-02-28T04:59:53;3.95;92.03
71206;SHT31;58935;54.498;18.544;2024-02-28T05:02:18;3.94;92.05
71206;SHT31;58935;54.498;18.544;2024-02-28T05:04:49;3.94;92.02
71206;SHT31;58935;54.498;18.544;2024-02-28T05:07:15;3.90;91.91
71206;SHT31;58935;54.498;18.544;2024-02-28T05:09:40;3.88;91.89
71206;SHT31;58935;54.498;18.544;2024-02-28T05:12:06;3.89;92.00
71206;SHT31;58935;54.498;18.544;2024-02-28T05:14:31;3.88;92.01
71206;SHT31;58935;54.498;18.544;2024-02-28T05:16:57;3.89;92.09
71206;SHT31;58935;54.498;18.544;2024-02-28T05:19:24;3.89;92.01
71206;SHT31;58935;54.498;18.544;2024-02-28T05:21:49;3.90;92.01
71206;SHT31;58935;54.498;18.544;2024-02-28T05:24:17;3.89;92.02
71206;SHT31;58935;54.498;18.544;2024-02-28T05:26:42;3.89;92.02
71206;SHT31;58935;54.498;18.544;2024-02-28T05:29:08;3.90;92.01
71206;SHT31;58935;54.498;18.544;2024-02-28T05:31:33;3.89;92.00
71206;SHT31;58935;54.498;18.544;2024-02-28T05:34:01;3.88;92.00
71206;SHT31;58935;54.498;18.544;2024-02-28T05:36:27;3.88;92.00
71206;SHT31;58935;54.498;18.544;2024-02-28T05:38:55;3.86;91.94
71206;SHT31;58935;54.498;18.544;2024-02-28T05:41:23;3.84;91.92
71206;SHT31;58935;54.498;18.544;2024-02-28T05:43:49;3.81;91.94
71206;SHT31;58935;54.498;18.544;2024-02-28T05:46:15;3.81;91.98
71206;SHT31;58935;54.498;18.544;2024-02-28T05:48:42;3.80;92.00
71206;SHT31;58935;54.498;18.544;2024-02-28T05:51:10;3.82;92.15
71206;SHT31;58935;54.498;18.544;2024-02-28T05:53:38;3.84;92.14
71206;SHT31;58935;54.498;18.544;2024-02-28T05:56:07;3.84;92.11
71206;SHT31;58935;54.498;18.544;2024-02-28T05:58:37;3.86;92.16
71206;SHT31;58935;54.498;18.544;2024-02-28T06:01:02;3.86;92.17
71206;SHT31;58935;54.498;18.544;2024-02-28T06:03:28;3.85;92.11
71206;SHT31;58935;54.498;18.544;2024-02-28T06:05:53;3.86;92.11
71206;SHT31;58935;54.498;18.544;2024-02-28T06:08:20;3.86;92.11
71206;SHT31;58935;54.498;18.544;2024-02-28T06:10:45;3.86;92.12
71206;SHT31;58935;54.498;18.544;2024-02-28T06:13:14;3.89;92.19
71206;SHT31;58935;54.498;18.544;2024-02-28T06:15:39;3.88;92.10
71206;SHT31;58935;54.498;18.544;2024-02-28T06:18:05;3.90;92.12
71206;SHT31;58935;54.498;18.544;2024-02-28T06:20:30;3.88;92.07
71206;SHT31;58935;54.498;18.544;2024-02-28T06:22:56;3.88;92.10
71206;SHT31;58935;54.498;18.544;2024-02-28T06:25:21;3.90;92.11
71206;SHT31;58935;54.498;18.544;2024-02-28T06:27:49;3.93;92.20
71206;SHT31;58935;54.498;18.544;2024-02-28T06:30:16;3.96;92.26
71206;SHT31;58935;54.498;18.544;2024-02-28T06:32:42;3.98;92.23
71206;SHT31;58935;54.498;18.544;2024-02-28T06:35:08;3.98;92.05
71206;SHT31;58935;54.498;18.544;2024-02-28T06:37:34;3.99;92.07
71206;SHT31;58935;54.498;18.544;2024-02-28T06:40:00;3.99;92.02
71206;SHT31;58935;54.498;18.544;2024-02-28T06:42:26;4.02;92.07
71206;SHT31;58935;54.498;18.544;2024-02-28T06:44:51;4.03;92.08
71206;SHT31;58935;54.498;18.544;2024-02-28T06:47:16;4.05;92.03
71206;SHT31;58935;54.498;18.544;2024-02-28T06:49:43;4.04;91.97
71206;SHT31;58935;54.498;18.544;2024-02-28T06:52:09;4.05;91.94
71206;SHT31;58935;54.498;18.544;2024-02-28T06:54:34;4.07;91.95
71206;SHT31;58935;54.498;18.544;2024-02-28T06:56:59;4.07;91.90
71206;SHT31;58935;54.498;18.544;2024-02-28T06:59:28;4.07;91.86
71206;SHT31;58935;54.498;18.544;2024-02-28T07:01:53;4.08;91.90
71206;SHT31;58935;54.498;18.544;2024-02-28T07:04:19;4.09;91.86
71206;SHT31;58935;54.498;18.544;2024-02-28T07:09:14;4.11;91.90
71206;SHT31;58935;54.498;18.544;2024-02-28T07:11:50;4.13;91.85
71206;SHT31;58935;54.498;18.544;2024-02-28T07:14:16;4.12;91.84
71206;SHT31;58935;54.498;18.544;2024-02-28T07:19:19;4.11;91.70
71206;SHT31;58935;54.498;18.544;2024-02-28T07:21:49;4.10;91.63
71206;SHT31;58935;54.498;18.544;2024-02-28T07:24:16;4.09;91.64
71206;SHT31;58935;54.498;18.544;2024-02-28T07:26:41;4.10;91.65
71206;SHT31;58935;54.498;18.544;2024-02-28T07:29:09;4.11;91.67
71206;SHT31;58935;54.498;18.544;2024-02-28T07:31:35;4.10;91.56
71206;SHT31;58935;54.498;18.544;2024-02-28T07:36:35;4.11;91.63
71206;SHT31;58935;54.498;18.544;2024-02-28T07:39:00;4.12;91.59
71206;SHT31;58935;54.498;18.544;2024-02-28T07:41:28;4.09;91.49
71206;SHT31;58935;54.498;18.544;2024-02-28T07:43:53;4.08;91.52
71206;SHT31;58935;54.498;18.544;2024-02-28T07:46:21;4.07;91.53
71206;SHT31;58935;54.498;18.544;2024-02-28T07:48:48;4.08;91.49
71206;SHT31;58935;54.498;18.544;2024-02-28T07:51:15;4.08;91.42
71206;SHT31;58935;54.498;18.544;2024-02-28T07:53:44;4.07;91.42
71206;SHT31;58935;54.498;18.544;2024-02-28T07:58:42;4.13;91.52
71206;SHT31;58935;54.498;18.544;2024-02-28T08:01:08;4.17;91.59
71206;SHT31;58935;54.498;18.544;2024-02-28T08:03:33;4.19;91.59
71206;SHT31;58935;54.498;18.544;2024-02-28T08:05:59;4.22;91.52
71206;SHT31;58935;54.498;18.544;2024-02-28T08:08:24;4.23;91.48
71206;SHT31;58935;54.498;18.544;2024-02-28T08:10:49;4.20;91.31
71206;SHT31;58935;54.498;18.544;2024-02-28T08:13:16;4.18;91.22
71206;SHT31;58935;54.498;18.544;2024-02-28T08:15:42;4.18;91.30
71206;SHT31;58935;54.498;18.544;2024-02-28T08:18:07;4.20;91.30
71206;SHT31;58935;54.498;18.544;2024-02-28T08:20:32;4.19;91.26
71206;SHT31;58935;54.498;18.544;2024-02-28T08:22:58;4.20;91.20
71206;SHT31;58935;54.498;18.544;2024-02-28T08:25:25;4.22;91.27
71206;SHT31;58935;54.498;18.544;2024-02-28T08:27:50;4.23;91.22
71206;SHT31;58935;54.498;18.544;2024-02-28T08:30:15;4.23;91.17
71206;SHT31;58935;54.498;18.544;2024-02-28T08:32:41;4.25;91.16
71206;SHT31;58935;54.498;18.544;2024-02-28T08:35:07;4.28;91.24
71206;SHT31;58935;54.498;18.544;2024-02-28T08:37:34;4.31;91.29
71206;SHT31;58935;54.498;18.544;2024-02-28T08:39:59;4.33;91.18
71206;SHT31;58935;54.498;18.544;2024-02-28T08:42:27;4.35;91.12
71206;SHT31;58935;54.498;18.544;2024-02-28T08:44:55;4.37;91.06
71206;SHT31;58935;54.498;18.544;2024-02-28T08:47:22;4.36;90.93
71206;SHT31;58935;54.498;18.544;2024-02-28T08:52:27;4.34;90.73
71206;SHT31;58935;54.498;18.544;2024-02-28T09:02:45;4.30;90.82
71206;SHT31;58935;54.498;18.544;2024-02-28T09:05:11;4.33;90.89
71206;SHT31;58935;54.498;18.544;2024-02-28T09:07:38;4.36;91.00
71206;SHT31;58935;54.498;18.544;2024-02-28T09:10:07;4.40;90.99
71206;SHT31;58935;54.498;18.544;2024-02-28T09:15:19;4.35;90.60
71206;SHT31;58935;54.498;18.544;2024-02-28T09:20:28;4.34;90.70
71206;SHT31;58935;54.498;18.544;2024-02-28T09:30:41;4.48;90.75
71206;SHT31;58935;54.498;18.544;2024-02-28T09:33:08;4.51;90.71
71206;SHT31;58935;54.498;18.544;2024-02-28T09:35:35;4.55;90.61
71206;SHT31;58935;54.498;18.544;2024-02-28T09:38:01;4.55;90.52
71206;SHT31;58935;54.498;18.544;2024-02-28T09:40:27;4.57;90.39
71206;SHT31;58935;54.498;18.544;2024-02-28T09:42:53;4.57;90.31
71206;SHT31;58935;54.498;18.544;2024-02-28T09:45:28;4.60;90.39
71206;SHT31;58935;54.498;18.544;2024-02-28T09:47:56;4.63;90.34
71206;SHT31;58935;54.498;18.544;2024-02-28T09:50:26;4.65;90.23
71206;SHT31;58935;54.498;18.544;2024-02-28T09:52:53;4.65;90.10
71206;SHT31;58935;54.498;18.544;2024-02-28T09:55:19;4.66;90.06
71206;SHT31;58935;54.498;18.544;2024-02-28T09:57:47;4.71;90.12
71206;SHT31;58935;54.498;18.544;2024-02-28T10:00:14;4.72;89.98
71206;SHT31;58935;54.498;18.544;2024-02-28T10:02:43;4.73;89.89
71206;SHT31;58935;54.498;18.544;2024-02-28T10:05:11;4.75;89.76
71206;SHT31;58935;54.498;18.544;2024-02-28T10:07:38;4.76;89.72
71206;SHT31;58935;54.498;18.544;2024-02-28T10:10:06;4.79;89.70
71206;SHT31;58935;54.498;18.544;2024-02-28T10:12:33;4.82;89.73
71206;SHT31;58935;54.498;18.544;2024-02-28T10:14:59;4.90;89.85
71206;SHT31;58935;54.498;18.544;2024-02-28T10:17:26;4.96;89.80
71206;SHT31;58935;54.498;18.544;2024-02-28T10:19:53;5.01;89.68
71206;SHT31;58935;54.498;18.544;2024-02-28T10:22:19;5.06;89.52
71206;SHT31;58935;54.498;18.544;2024-02-28T10:24:44;5.07;89.36
71206;SHT31;58935;54.498;18.544;2024-02-28T10:27:09;5.08;89.21
71206;SHT31;58935;54.498;18.544;2024-02-28T10:29:35;5.10;89.17
71206;SHT31;58935;54.498;18.544;2024-02-28T10:32:00;5.17;89.26
71206;SHT31;58935;54.498;18.544;2024-02-28T10:34:30;5.24;89.22
71206;SHT31;58935;54.498;18.544;2024-02-28T10:36:56;5.30;89.11
71206;SHT31;58935;54.498;18.544;2024-02-28T10:39:23;5.36;89.08
71206;SHT31;58935;54.498;18.544;2024-02-28T10:41:50;5.37;88.67
71206;SHT31;58935;54.498;18.544;2024-02-28T10:44:17;5.37;88.40
71206;SHT31;58935;54.498;18.544;2024-02-28T10:46:48;5.37;88.26
71206;SHT31;58935;54.498;18.544;2024-02-28T10:49:14;5.38;88.21
71206;SHT31;58935;54.498;18.544;2024-02-28T10:51:40;5.41;88.21
71206;SHT31;58935;54.498;18.544;2024-02-28T10:54:16;5.41;87.98
71206;SHT31;58935;54.498;18.544;2024-02-28T10:56:46;5.41;87.86
71206;SHT31;58935;54.498;18.544;2024-02-28T10:59:13;5.43;87.80
71206;SHT31;58935;54.498;18.544;2024-02-28T11:01:41;5.45;87.74
71206;SHT31;58935;54.498;18.544;2024-02-28T11:04:10;5.47;87.75
71206;SHT31;58935;54.498;18.544;2024-02-28T11:09:18;5.49;87.52
71206;SHT31;58935;54.498;18.544;2024-02-28T11:11:47;5.52;87.56
71206;SHT31;58935;54.498;18.544;2024-02-28T11:14:15;5.56;87.70
71206;SHT31;58935;54.498;18.544;2024-02-28T11:16:40;5.64;87.86
71206;SHT31;58935;54.498;18.544;2024-02-28T11:19:10;5.73;87.79
71206;SHT31;58935;54.498;18.544;2024-02-28T11:24:23;5.76;87.23
71206;SHT31;58935;54.498;18.544;2024-02-28T11:26:53;5.78;87.25
71206;SHT31;58935;54.498;18.544;2024-02-28T11:31:52;5.78;87.09
71206;SHT31;58935;54.498;18.544;2024-02-28T11:34:18;5.80;87.02
71206;SHT31;58935;54.498;18.544;2024-02-28T11:36:48;5.77;86.72
71206;SHT31;58935;54.498;18.544;2024-02-28T11:39:14;5.75;86.58
71206;SHT31;58935;54.498;18.544;2024-02-28T11:41:41;5.74;86.66
71206;SHT31;58935;54.498;18.544;2024-02-28T11:44:14;5.70;86.43
71206;SHT31;58935;54.498;18.544;2024-02-28T11:46:43;5.67;86.45
71206;SHT31;58935;54.498;18.544;2024-02-28T11:49:13;5.66;86.53
71206;SHT31;58935;54.498;18.544;2024-02-28T11:51:40;5.65;86.53
71206;SHT31;58935;54.498;18.544;2024-02-28T11:54:07;5.65;86.66
71206;SHT31;58935;54.498;18.544;2024-02-28T11:56:37;5.64;86.54
71206;SHT31;58935;54.498;18.544;2024-02-28T11:59:03;5.60;86.47
71206;SHT31;58935;54.498;18.544;2024-02-28T12:04:04;5.59;86.44
71206;SHT31;58935;54.498;18.544;2024-02-28T12:06:30;5.58;86.54
71206;SHT31;58935;54.498;18.544;2024-02-28T12:08:59;5.59;86.64
71206;SHT31;58935;54.498;18.544;2024-02-28T12:11:25;5.58;86.60
71206;SHT31;58935;54.498;18.544;2024-02-28T12:13:53;5.56;86.56
71206;SHT31;58935;54.498;18.544;2024-02-28T12:16:22;5.56;86.74
71206;SHT31;58935;54.498;18.544;2024-02-28T12:18:51;5.53;86.61
71206;SHT31;58935;54.498;18.544;2024-02-28T12:21:19;5.52;86.76
71206;SHT31;58935;54.498;18.544;2024-02-28T12:23:46;5.50;86.81
71206;SHT31;58935;54.498;18.544;2024-02-28T12:26:13;5.49;86.87
71206;SHT31;58935;54.498;18.544;2024-02-28T12:28:39;5.48;86.98
71206;SHT31;58935;54.498;18.544;2024-02-28T12:31:05;5.51;87.11
71206;SHT31;58935;54.498;18.544;2024-02-28T12:33:33;5.50;86.96
71206;SHT31;58935;54.498;18.544;2024-02-28T12:36:01;5.49;87.05
71206;SHT31;58935;54.498;18.544;2024-02-28T12:38:29;5.53;87.19
71206;SHT31;58935;54.498;18.544;2024-02-28T12:40:55;5.55;87.16
71206;SHT31;58935;54.498;18.544;2024-02-28T12:43:21;5.56;87.14
71206;SHT31;58935;54.498;18.544;2024-02-28T12:45:48;5.57;87.17
71206;SHT31;58935;54.498;18.544;2024-02-28T12:53:29;5.61;86.96
71206;SHT31;58935;54.498;18.544;2024-02-28T13:01:04;5.55;86.95
71206;SHT31;58935;54.498;18.544;2024-02-28T13:03:33;5.52;86.96
71206;SHT31;58935;54.498;18.544;2024-02-28T13:06:08;5.49;87.10
71206;SHT31;58935;54.498;18.544;2024-02-28T13:08:33;5.48;87.22
71206;SHT31;58935;54.498;18.544;2024-02-28T13:10:59;5.50;87.25
71206;SHT31;58935;54.498;18.544;2024-02-28T13:13:29;5.51;87.24
71206;SHT31;58935;54.498;18.544;2024-02-28T13:15:54;5.49;87.04
71206;SHT31;58935;54.498;18.544;2024-02-28T13:18:19;5.49;87.11
71206;SHT31;58935;54.498;18.544;2024-02-28T13:20:49;5.49;87.04
71206;SHT31;58935;54.498;18.544;2024-02-28T13:23:22;5.49;87.03
71206;SHT31;58935;54.498;18.544;2024-02-28T13:25:48;5.47;86.93
71206;SHT31;58935;54.498;18.544;2024-02-28T13:28:14;5.42;86.87
71206;SHT31;58935;54.498;18.544;2024-02-28T13:30:40;5.40;86.93
71206;SHT31;58935;54.498;18.544;2024-02-28T13:33:08;5.40;86.89
71206;SHT31;58935;54.498;18.544;2024-02-28T13:35:35;5.39;86.96
71206;SHT31;58935;54.498;18.544;2024-02-28T13:38:03;5.40;86.87
71206;SHT31;58935;54.498;18.544;2024-02-28T13:40:28;5.41;86.94
71206;SHT31;58935;54.498;18.544;2024-02-28T13:42:54;5.42;86.96
71206;SHT31;58935;54.498;18.544;2024-02-28T13:45:21;5.39;86.81
71206;SHT31;58935;54.498;18.544;2024-02-28T13:47:47;5.41;86.89
71206;SHT31;58935;54.498;18.544;2024-02-28T13:50:12;5.39;86.71
71206;SHT31;58935;54.498;18.544;2024-02-28T13:52:39;5.36;86.71
71206;SHT31;58935;54.498;18.544;2024-02-28T13:55:04;5.34;86.80
71206;SHT31;58935;54.498;18.544;2024-02-28T13:57:30;5.32;86.80
71206;SHT31;58935;54.498;18.544;2024-02-28T13:59:57;5.31;86.81
71206;SHT31;58935;54.498;18.544;2024-02-28T14:02:24;5.33;87.04
71206;SHT31;58935;54.498;18.544;2024-02-28T14:04:56;5.35;86.94
71206;SHT31;58935;54.498;18.544;2024-02-28T14:07:27;5.34;86.72
71206;SHT31;58935;54.498;18.544;2024-02-28T14:09:52;5.31;86.55
71206;SHT31;58935;54.498;18.544;2024-02-28T14:12:18;5.24;86.34
71206;SHT31;58935;54.498;18.544;2024-02-28T14:14:43;5.24;86.51
71206;SHT31;58935;54.498;18.544;2024-02-28T14:17:08;5.23;86.62
71206;SHT31;58935;54.498;18.544;2024-02-28T14:19:34;5.22;86.70
71206;SHT31;58935;54.498;18.544;2024-02-28T14:22:01;5.22;86.73
71206;SHT31;58935;54.498;18.544;2024-02-28T14:24:26;5.22;86.81
71206;SHT31;58935;54.498;18.544;2024-02-28T14:26:51;5.20;86.80
71206;SHT31;58935;54.498;18.544;2024-02-28T14:29:17;5.17;86.87
71206;SHT31;58935;54.498;18.544;2024-02-28T14:31:42;5.16;86.94
71206;SHT31;58935;54.498;18.544;2024-02-28T14:34:11;5.14;86.89
71206;SHT31;58935;54.498;18.544;2024-02-28T14:36:38;5.08;86.90
71206;SHT31;58935;54.498;18.544;2024-02-28T14:39:03;5.05;87.09
71206;SHT31;58935;54.498;18.544;2024-02-28T14:41:29;5.04;87.18
71206;SHT31;58935;54.498;18.544;2024-02-28T14:43:59;5.03;87.25
71206;SHT31;58935;54.498;18.544;2024-02-28T14:46:24;5.05;87.44
71206;SHT31;58935;54.498;18.544;2024-02-28T14:48:49;5.05;87.48
71206;SHT31;58935;54.498;18.544;2024-02-28T14:51:17;5.07;87.51
71206;SHT31;58935;54.498;18.544;2024-02-28T14:53:44;5.07;87.44
71206;SHT31;58935;54.498;18.544;2024-02-28T14:56:11;5.04;87.40
71206;SHT31;58935;54.498;18.544;2024-02-28T14:58:41;4.99;87.43
71206;SHT31;58935;54.498;18.544;2024-02-28T15:01:07;4.97;87.50
71206;SHT31;58935;54.498;18.544;2024-02-28T15:03:35;4.93;87.55
71206;SHT31;58935;54.498;18.544;2024-02-28T15:06:00;4.89;87.53
71206;SHT31;58935;54.498;18.544;2024-02-28T15:08:26;4.84;87.64
71206;SHT31;58935;54.498;18.544;2024-02-28T15:10:51;4.81;87.82
71206;SHT31;58935;54.498;18.544;2024-02-28T15:13:17;4.81;87.92
71206;SHT31;58935;54.498;18.544;2024-02-28T15:15:43;4.79;87.86
71206;SHT31;58935;54.498;18.544;2024-02-28T15:18:08;4.72;87.75
71206;SHT31;58935;54.498;18.544;2024-02-28T15:20:33;4.66;87.87
71206;SHT31;58935;54.498;18.544;2024-02-28T15:22:59;4.62;88.01
71206;SHT31;58935;54.498;18.544;2024-02-28T15:25:24;4.57;88.09
71206;SHT31;58935;54.498;18.544;2024-02-28T15:27:49;4.55;88.14
71206;SHT31;58935;54.498;18.544;2024-02-28T15:30:15;4.54;88.14
71206;SHT31;58935;54.498;18.544;2024-02-28T15:32:43;4.53;88.15
71206;SHT31;58935;54.498;18.544;2024-02-28T15:35:09;4.55;88.17
71206;SHT31;58935;54.498;18.544;2024-02-28T15:37:35;4.54;88.05
71206;SHT31;58935;54.498;18.544;2024-02-28T15:40:01;4.54;87.96
71206;SHT31;58935;54.498;18.544;2024-02-28T15:42:32;4.55;87.97
71206;SHT31;58935;54.498;18.544;2024-02-28T15:44:58;4.58;88.05
71206;SHT31;58935;54.498;18.544;2024-02-28T15:47:26;4.60;87.92
71206;SHT31;58935;54.498;18.544;2024-02-28T15:49:52;4.59;87.81
71206;SHT31;58935;54.498;18.544;2024-02-28T15:52:17;4.61;87.92
71206;SHT31;58935;54.498;18.544;2024-02-28T15:54:42;4.64;87.86
71206;SHT31;58935;54.498;18.544;2024-02-28T15:57:10;4.61;87.50
71206;SHT31;58935;54.498;18.544;2024-02-28T15:59:40;4.53;87.13
71206;SHT31;58935;54.498;18.544;2024-02-28T16:02:06;4.46;87.12
71206;SHT31;58935;54.498;18.544;2024-02-28T16:04:33;4.42;87.17
71206;SHT31;58935;54.498;18.544;2024-02-28T16:06:59;4.36;87.14
71206;SHT31;58935;54.498;18.544;2024-02-28T16:09:26;4.32;87.22
71206;SHT31;58935;54.498;18.544;2024-02-28T16:11:51;4.30;87.29
71206;SHT31;58935;54.498;18.544;2024-02-28T16:14:17;4.28;87.38
71206;SHT31;58935;54.498;18.544;2024-02-28T16:16:45;4.30;87.43
71206;SHT31;58935;54.498;18.544;2024-02-28T16:19:10;4.33;87.56